Time;durP1;ratioP1;P1;durP2;ratioP2;P2;SDS_P1;SDS_P2;PMS_P1;PMS_P2;Temp;Humidity;BMP_temperature;BMP_pressure;BME280_temperature;BME280_humidity;BME280_pressure;Samples;Min_cycle;Max_cycle;Signal;HPM_P1;HPM_P2
2022/10/10 00:00:43;;;;;;;;;;;9.60;99.90;;;;;;5104006;27;36421;-57
2022/10/10 00:03:11;;;;;;;;;;;9.60;99.90;;;;;;4205853;27;36269;-57
2022/10/10 00:05:42;;;;;;;;;;;9.70;99.90;;;;;;4021049;27;39284;-60
2022/10/10 00:08:09;;;;;;;;;;;9.60;99.90;;;;;;5106195;27;39049;-60
2022/10/10 00:10:36;;;;;;;;;;;9.70;99.90;;;;;;5101810;27;37857;-60
2022/10/10 00:13:05;;;;;;;;;;;9.70;99.90;;;;;;5103537;27;35183;-58
2022/10/10 00:15:32;;;;;;;;;;;9.90;99.90;;;;;;5103604;27;39004;-58
2022/10/10 00:17:59;;;;;;;;;;;9.90;99.90;;;;;;5104135;27;38690;-58
2022/10/10 00:20:26;;;;;;;;;;;10.10;99.90;;;;;;5101761;27;38267;-58
2022/10/10 00:22:53;;;;;;;;;;;10.10;99.90;;;;;;5104021;27;37357;-60
2022/10/10 00:25:21;;;;;;;;;;;10.10;99.90;;;;;;5104897;27;37704;-60
2022/10/10 00:27:48;;;;;;;;;;;10.00;99.90;;;;;;5104748;27;38094;-60
2022/10/10 00:30:16;;;;;;;;;;;10.00;99.90;;;;;;5103332;27;37879;-58
2022/10/10 00:32:43;;;;;;;;;;;10.00;99.90;;;;;;5105072;27;37801;-60
2022/10/10 00:35:10;;;;;;;;;;;9.90;99.90;;;;;;5105967;27;36639;-60
2022/10/10 00:37:37;;;;;;;;;;;9.80;99.90;;;;;;5106214;27;38677;-60
2022/10/10 00:40:06;;;;;;;;;;;9.70;99.90;;;;;;5106455;27;36117;-58
2022/10/10 00:42:33;;;;;;;;;;;9.70;99.90;;;;;;5104865;27;37524;-59
2022/10/10 00:45:22;;;;;;;;;;;9.70;99.90;;;;;;5103766;27;37979;-60
2022/10/10 00:47:49;;;;;;;;;;;9.60;99.90;;;;;;5104847;27;37234;-59
2022/10/10 00:50:17;;;;;;;;;;;9.60;99.90;;;;;;5103211;27;39949;-58
2022/10/10 00:52:44;;;;;;;;;;;9.50;99.90;;;;;;5105141;27;36410;-58
2022/10/10 00:55:12;;;;;;;;;;;9.50;99.90;;;;;;5106788;27;37535;-58
2022/10/10 00:57:39;;;;;;;;;;;9.40;99.90;;;;;;5105274;27;37068;-58
2022/10/10 01:00:07;;;;;;;;;;;9.50;99.90;;;;;;5105526;27;37950;-60
2022/10/10 01:02:35;;;;;;;;;;;9.50;99.90;;;;;;5104104;27;37333;-58
2022/10/10 01:05:02;;;;;;;;;;;9.40;99.90;;;;;;5105256;27;37778;-58
2022/10/10 01:07:30;;;;;;;;;;;9.50;99.90;;;;;;5105236;27;38217;-58
2022/10/10 01:10:03;;;;;;;;;;;9.50;99.90;;;;;;5105451;27;38608;-60
2022/10/10 01:12:34;;;;;;;;;;;9.60;99.90;;;;;;5106528;27;38230;-58
2022/10/10 01:15:05;;;;;;;;;;;9.70;99.90;;;;;;5106279;27;37229;-58
2022/10/10 01:17:33;;;;;;;;;;;9.70;99.90;;;;;;5108415;27;38377;-58
2022/10/10 01:20:17;;;;;;;;;;;9.80;99.90;;;;;;5107368;27;37801;-58
2022/10/10 01:22:51;;;;;;;;;;;9.90;99.90;;;;;;5108831;27;36671;-60
2022/10/10 01:25:23;;;;;;;;;;;9.90;99.90;;;;;;5108018;27;37828;-58
2022/10/10 01:27:52;;;;;;;;;;;9.90;99.90;;;;;;5108164;27;38796;-58
2022/10/10 01:30:22;;;;;;;;;;;9.90;99.90;;;;;;5110670;27;39825;-58
2022/10/10 01:32:51;;;;;;;;;;;9.90;99.90;;;;;;5110080;27;34521;-58
2022/10/10 01:35:23;;;;;;;;;;;9.90;99.90;;;;;;5107708;27;38071;-58
2022/10/10 01:37:54;;;;;;;;;;;9.90;99.90;;;;;;5109006;27;38444;-58
2022/10/10 01:40:24;;;;;;;;;;;9.90;99.90;;;;;;5108611;27;37543;-58
2022/10/10 01:42:54;;;;;;;;;;;9.90;99.90;;;;;;5107114;27;35727;-58
2022/10/10 01:45:23;;;;;;;;;;;9.90;99.90;;;;;;5108390;27;37343;-58
2022/10/10 01:47:52;;;;;;;;;;;9.90;99.90;;;;;;5106949;27;38539;-58
2022/10/10 01:50:21;;;;;;;;;;;9.90;99.90;;;;;;5109870;27;38510;-58
2022/10/10 01:52:52;;;;;;;;;;;9.80;99.90;;;;;;5109619;27;35788;-60
2022/10/10 01:55:26;;;;;;;;;;;9.80;99.90;;;;;;5108850;27;37369;-58
2022/10/10 01:57:59;;;;;;;;;;;9.80;99.90;;;;;;5109944;27;38141;-58
2022/10/10 02:00:28;;;;;;;;;;;9.80;99.90;;;;;;5109796;27;36279;-59
2022/10/10 02:02:57;;;;;;;;;;;9.80;99.90;;;;;;5109415;27;37974;-58
2022/10/10 02:05:27;;;;;;;;;;;9.80;99.90;;;;;;5108653;27;38920;-58
2022/10/10 02:07:56;;;;;;;;;;;9.70;99.90;;;;;;5109640;27;38786;-58
2022/10/10 02:10:26;;;;;;;;;;;9.70;99.90;;;;;;5110643;27;37535;-60
2022/10/10 02:12:54;;;;;;;;;;;9.70;99.90;;;;;;5108676;27;36359;-60
2022/10/10 02:15:23;;;;;;;;;;;9.70;99.90;;;;;;5109541;27;37967;-60
2022/10/10 02:17:52;;;;;;;;;;;9.60;99.90;;;;;;5108115;27;38373;-57
2022/10/10 02:20:20;;;;;;;;;;;9.70;99.90;;;;;;5107778;27;38120;-57
2022/10/10 02:22:49;;;;;;;;;;;9.60;99.90;;;;;;5108617;27;37331;-57
2022/10/10 02:25:16;;;;;;;;;;;9.60;99.90;;;;;;5107957;27;37219;-57
2022/10/10 02:27:46;;;;;;;;;;;9.60;99.90;;;;;;5108575;27;38913;-56
2022/10/10 02:30:14;;;;;;;;;;;9.60;99.90;;;;;;5109329;27;38543;-57
2022/10/10 02:32:43;;;;;;;;;;;9.60;99.90;;;;;;5108387;27;36353;-57
2022/10/10 02:35:13;;;;;;;;;;;9.70;99.90;;;;;;5107059;27;37521;-57
2022/10/10 02:37:41;;;;;;;;;;;9.60;99.90;;;;;;5108158;27;38627;-57
2022/10/10 02:40:09;;;;;;;;;;;9.70;99.90;;;;;;5109553;27;36230;-57
2022/10/10 02:42:36;;;;;;;;;;;9.70;99.90;;;;;;5108256;27;36484;-57
2022/10/10 02:45:03;;;;;;;;;;;9.70;99.90;;;;;;5108921;27;37984;-57
2022/10/10 02:47:31;;;;;;;;;;;9.70;99.90;;;;;;5107337;27;38317;-57
2022/10/10 02:49:58;;;;;;;;;;;9.80;99.90;;;;;;5108253;27;38513;-57
2022/10/10 02:52:26;;;;;;;;;;;9.80;99.90;;;;;;5108382;27;35215;-57
2022/10/10 02:54:53;;;;;;;;;;;9.90;99.90;;;;;;5108028;27;36480;-57
2022/10/10 02:57:20;;;;;;;;;;;9.90;99.90;;;;;;5108755;27;39038;-57
2022/10/10 02:59:47;;;;;;;;;;;10.00;99.90;;;;;;5107027;27;36357;-57
2022/10/10 03:02:14;;;;;;;;;;;10.00;99.90;;;;;;5109191;27;36862;-57
2022/10/10 03:04:43;;;;;;;;;;;10.10;99.90;;;;;;5107581;27;36311;-57
2022/10/10 03:07:10;;;;;;;;;;;10.00;99.90;;;;;;5106094;27;39269;-57
2022/10/10 03:09:38;;;;;;;;;;;10.00;99.90;;;;;;5108285;27;38460;-57
2022/10/10 03:12:06;;;;;;;;;;;10.10;99.90;;;;;;5107659;27;36674;-57
2022/10/10 03:14:33;;;;;;;;;;;10.00;99.90;;;;;;5107549;27;37690;-57
2022/10/10 03:17:00;;;;;;;;;;;10.10;99.90;;;;;;5106802;27;38311;-57
2022/10/10 03:19:27;;;;;;;;;;;10.10;99.90;;;;;;5107922;27;37630;-57
2022/10/10 03:21:54;;;;;;;;;;;10.10;99.90;;;;;;5105423;27;36605;-57
2022/10/10 03:24:21;;;;;;;;;;;10.10;99.90;;;;;;5107649;27;38021;-57
2022/10/10 03:26:49;;;;;;;;;;;10.10;99.90;;;;;;5107979;27;38574;-57
2022/10/10 03:29:16;;;;;;;;;;;10.10;99.90;;;;;;5108387;27;37153;-57
2022/10/10 03:31:43;;;;;;;;;;;10.10;99.90;;;;;;5106565;27;37845;-57
2022/10/10 03:34:10;;;;;;;;;;;10.10;99.90;;;;;;5107047;27;39901;-57
2022/10/10 03:36:37;;;;;;;;;;;10.10;99.90;;;;;;5108006;27;38569;-57
2022/10/10 03:39:04;;;;;;;;;;;10.10;99.90;;;;;;5107578;27;39161;-57
2022/10/10 03:41:31;;;;;;;;;;;10.10;99.90;;;;;;5109414;27;38720;-57
2022/10/10 03:44:00;;;;;;;;;;;10.10;99.90;;;;;;5106552;27;36510;-57
2022/10/10 03:46:27;;;;;;;;;;;10.10;99.90;;;;;;5107779;27;38058;-57
2022/10/10 03:48:54;;;;;;;;;;;10.10;99.90;;;;;;5107767;27;37159;-57
2022/10/10 03:51:21;;;;;;;;;;;10.10;99.90;;;;;;5108111;27;36984;-57
2022/10/10 03:53:49;;;;;;;;;;;10.10;99.90;;;;;;5107870;27;36509;-57
2022/10/10 03:56:16;;;;;;;;;;;10.10;99.90;;;;;;5108024;27;38421;-57
2022/10/10 03:58:43;;;;;;;;;;;10.00;99.90;;;;;;5107540;27;38586;-57
2022/10/10 04:01:11;;;;;;;;;;;10.00;99.90;;;;;;5107388;27;37003;-57
2022/10/10 04:03:38;;;;;;;;;;;10.00;99.90;;;;;;5105495;27;38620;-57
2022/10/10 04:06:05;;;;;;;;;;;10.00;99.90;;;;;;5107184;27;38908;-57
2022/10/10 04:08:32;;;;;;;;;;;10.00;99.90;;;;;;5107065;27;37761;-57
2022/10/10 04:10:59;;;;;;;;;;;10.00;99.90;;;;;;5107437;27;38977;-57
2022/10/10 04:13:26;;;;;;;;;;;10.00;99.90;;;;;;5106844;27;37990;-57
2022/10/10 04:15:54;;;;;;;;;;;10.00;99.90;;;;;;5107231;27;38300;-57
2022/10/10 04:18:22;;;;;;;;;;;9.90;99.90;;;;;;5107018;27;38181;-57
2022/10/10 04:20:49;;;;;;;;;;;10.00;99.90;;;;;;5105639;27;37343;-57
2022/10/10 04:23:16;;;;;;;;;;;9.90;99.90;;;;;;5105565;27;36418;-57
2022/10/10 04:25:44;;;;;;;;;;;9.90;99.90;;;;;;5106628;27;38221;-57
2022/10/10 04:28:11;;;;;;;;;;;9.90;99.90;;;;;;5106567;27;38023;-57
2022/10/10 04:30:38;;;;;;;;;;;9.90;99.90;;;;;;5107984;27;36477;-57
2022/10/10 04:33:05;;;;;;;;;;;9.90;99.90;;;;;;5105549;27;39748;-57
2022/10/10 04:35:34;;;;;;;;;;;9.90;99.90;;;;;;5105274;27;39645;-57
2022/10/10 04:38:01;;;;;;;;;;;9.90;99.90;;;;;;5106531;27;39358;-57
2022/10/10 04:40:28;;;;;;;;;;;9.90;99.90;;;;;;5105979;27;36321;-57
2022/10/10 04:42:55;;;;;;;;;;;10.00;99.90;;;;;;5104870;27;39046;-57
2022/10/10 04:45:25;;;;;;;;;;;9.90;99.90;;;;;;5103934;27;38275;-57
2022/10/10 04:47:52;;;;;;;;;;;9.90;99.90;;;;;;5101515;27;40144;-57
2022/10/10 04:50:19;;;;;;;;;;;10.00;99.90;;;;;;5101913;27;36313;-57
2022/10/10 04:52:47;;;;;;;;;;;9.90;99.90;;;;;;5105332;27;39377;-57
2022/10/10 04:55:15;;;;;;;;;;;9.90;99.90;;;;;;5105534;27;38179;-57
2022/10/10 04:57:42;;;;;;;;;;;9.90;99.90;;;;;;5104537;27;38311;-57
2022/10/10 05:00:09;;;;;;;;;;;9.80;99.90;;;;;;5103241;27;35195;-57
2022/10/10 05:02:36;;;;;;;;;;;9.80;99.90;;;;;;5105572;27;37769;-57
2022/10/10 05:05:03;;;;;;;;;;;9.80;99.90;;;;;;5104144;27;39564;-57
2022/10/10 05:07:30;;;;;;;;;;;9.80;99.90;;;;;;5101832;27;36975;-57
2022/10/10 05:09:59;;;;;;;;;;;9.80;99.90;;;;;;5105754;27;37077;-57
2022/10/10 05:12:26;;;;;;;;;;;9.80;99.90;;;;;;5105852;27;38636;-57
2022/10/10 05:14:53;;;;;;;;;;;9.90;99.90;;;;;;5106338;27;38249;-57
2022/10/10 05:17:20;;;;;;;;;;;9.90;99.90;;;;;;5105122;27;37525;-57
2022/10/10 05:19:47;;;;;;;;;;;9.80;99.90;;;;;;5108727;27;36256;-57
2022/10/10 05:22:14;;;;;;;;;;;9.80;99.90;;;;;;5109476;27;37539;-57
2022/10/10 05:24:42;;;;;;;;;;;9.90;99.90;;;;;;5110913;27;37196;-57
2022/10/10 05:27:10;;;;;;;;;;;9.80;99.90;;;;;;5106844;27;38673;-57
2022/10/10 05:29:37;;;;;;;;;;;9.80;99.90;;;;;;5110443;27;37447;-57
2022/10/10 05:32:04;;;;;;;;;;;9.80;99.90;;;;;;5108693;27;36479;-58
2022/10/10 05:34:31;;;;;;;;;;;9.80;99.90;;;;;;5110145;27;38304;-58
2022/10/10 05:36:58;;;;;;;;;;;9.80;99.90;;;;;;5108482;27;36444;-58
2022/10/10 05:39:25;;;;;;;;;;;9.80;99.90;;;;;;5109998;27;36160;-58
2022/10/10 05:41:52;;;;;;;;;;;9.80;99.90;;;;;;5108647;27;36529;-58
2022/10/10 05:44:20;;;;;;;;;;;9.80;99.90;;;;;;5110189;27;38430;-58
2022/10/10 05:46:47;;;;;;;;;;;9.80;99.90;;;;;;5110526;27;38703;-58
2022/10/10 05:49:14;;;;;;;;;;;9.70;99.90;;;;;;5109881;27;35173;-58
2022/10/10 05:51:41;;;;;;;;;;;9.70;99.90;;;;;;5108623;27;38419;-58
2022/10/10 05:54:08;;;;;;;;;;;9.80;99.90;;;;;;5108512;27;37039;-58
2022/10/10 05:56:35;;;;;;;;;;;9.80;99.90;;;;;;5108537;27;37480;-60
2022/10/10 05:59:03;;;;;;;;;;;9.80;99.90;;;;;;5108958;27;35200;-59
2022/10/10 06:01:31;;;;;;;;;;;9.80;99.90;;;;;;5107513;27;37910;-58
2022/10/10 06:03:58;;;;;;;;;;;9.80;99.90;;;;;;5109512;27;39114;-58
2022/10/10 06:06:25;;;;;;;;;;;9.80;99.90;;;;;;5109226;27;36321;-58
2022/10/10 06:08:53;;;;;;;;;;;9.80;99.90;;;;;;5109118;27;36356;-58
2022/10/10 06:11:22;;;;;;;;;;;9.80;99.90;;;;;;5108127;27;39089;-58
2022/10/10 06:13:52;;;;;;;;;;;9.80;99.90;;;;;;5109351;27;38195;-60
2022/10/10 06:16:20;;;;;;;;;;;9.80;99.90;;;;;;5109857;27;39021;-58
2022/10/10 06:18:48;;;;;;;;;;;9.80;99.90;;;;;;5107676;27;33436;-58
2022/10/10 06:21:15;;;;;;;;;;;9.80;99.90;;;;;;5109492;27;38048;-58
2022/10/10 06:23:42;;;;;;;;;;;9.80;99.90;;;;;;5110053;27;38522;-58
2022/10/10 06:26:10;;;;;;;;;;;9.80;99.90;;;;;;5109797;27;39854;-59
2022/10/10 06:28:37;;;;;;;;;;;9.80;99.90;;;;;;5110072;27;36191;-58
2022/10/10 06:31:05;;;;;;;;;;;9.90;99.90;;;;;;5107552;27;39163;-60
2022/10/10 06:33:32;;;;;;;;;;;9.90;99.90;;;;;;5109589;27;36981;-58
2022/10/10 06:36:04;;;;;;;;;;;9.90;99.90;;;;;;5108430;27;37327;-58
2022/10/10 06:38:31;;;;;;;;;;;9.90;99.90;;;;;;5109771;27;36367;-59
2022/10/10 06:41:01;;;;;;;;;;;10.00;99.90;;;;;;5109248;27;36683;-60
2022/10/10 06:43:28;;;;;;;;;;;10.00;99.90;;;;;;5108287;27;39243;-58
2022/10/10 06:45:55;;;;;;;;;;;10.00;99.90;;;;;;5105712;27;36242;-58
2022/10/10 06:48:22;;;;;;;;;;;10.10;99.90;;;;;;5108978;27;39473;-60
2022/10/10 06:50:56;;;;;;;;;;;10.10;99.90;;;;;;5104717;27;36513;-58
2022/10/10 06:53:25;;;;;;;;;;;10.20;99.90;;;;;;5107753;27;37032;-58
2022/10/10 06:55:53;;;;;;;;;;;10.20;99.90;;;;;;5108686;27;37450;-58
2022/10/10 06:58:20;;;;;;;;;;;10.20;99.90;;;;;;5106984;27;35088;-60
2022/10/10 07:00:50;;;;;;;;;;;10.30;99.90;;;;;;5108343;27;38346;-60
2022/10/10 07:03:17;;;;;;;;;;;10.40;99.90;;;;;;5108535;27;37009;-58
2022/10/10 07:05:44;;;;;;;;;;;10.40;99.90;;;;;;5108049;27;37341;-60
2022/10/10 07:08:11;;;;;;;;;;;10.40;99.90;;;;;;5109565;27;35099;-60
2022/10/10 07:10:40;;;;;;;;;;;10.50;99.90;;;;;;5105671;27;37927;-58
2022/10/10 07:13:07;;;;;;;;;;;10.50;99.90;;;;;;5109841;27;40399;-59
2022/10/10 07:15:34;;;;;;;;;;;10.50;99.90;;;;;;5109520;27;36513;-58
2022/10/10 07:18:01;;;;;;;;;;;10.60;99.90;;;;;;5109865;27;37319;-60
2022/10/10 07:20:28;;;;;;;;;;;10.60;99.90;;;;;;5109567;27;37539;-59
2022/10/10 07:22:55;;;;;;;;;;;10.60;99.90;;;;;;5110625;27;38241;-60
2022/10/10 07:25:22;;;;;;;;;;;10.70;99.90;;;;;;5110336;27;37687;-59
2022/10/10 07:27:50;;;;;;;;;;;10.70;99.90;;;;;;5110204;27;36583;-60
2022/10/10 07:30:17;;;;;;;;;;;10.70;99.90;;;;;;5110162;27;37613;-60
2022/10/10 07:32:44;;;;;;;;;;;10.80;99.90;;;;;;5109677;27;37082;-60
2022/10/10 07:35:12;;;;;;;;;;;10.80;99.90;;;;;;5108312;27;37649;-60
2022/10/10 07:37:39;;;;;;;;;;;10.70;99.90;;;;;;5109308;27;36186;-60
2022/10/10 07:40:07;;;;;;;;;;;10.80;99.90;;;;;;5109877;27;37087;-60
2022/10/10 07:42:35;;;;;;;;;;;10.70;99.90;;;;;;5109095;27;37784;-58
2022/10/10 07:45:03;;;;;;;;;;;10.80;99.90;;;;;;5108959;27;38161;-60
2022/10/10 07:47:30;;;;;;;;;;;10.80;99.90;;;;;;5106690;27;36613;-59
2022/10/10 07:49:57;;;;;;;;;;;10.80;99.90;;;;;;5108390;27;36529;-59
2022/10/10 07:52:24;;;;;;;;;;;10.80;99.90;;;;;;5108168;27;39231;-59
2022/10/10 07:54:51;;;;;;;;;;;10.80;99.90;;;;;;5107543;27;36388;-60
2022/10/10 07:57:18;;;;;;;;;;;10.80;99.90;;;;;;5107336;27;37026;-59
2022/10/10 07:59:45;;;;;;;;;;;10.90;99.90;;;;;;5107491;27;38141;-60
2022/10/10 08:02:14;;;;;;;;;;;10.90;99.90;;;;;;5109221;27;38458;-60
2022/10/10 08:04:41;;;;;;;;;;;11.00;99.90;;;;;;5107635;27;38524;-60
2022/10/10 08:07:09;;;;;;;;;;;11.00;99.90;;;;;;5107406;27;36153;-59
2022/10/10 08:09:36;;;;;;;;;;;11.00;99.90;;;;;;5108627;27;37935;-59
2022/10/10 08:12:03;;;;;;;;;;;11.10;99.90;;;;;;5108600;27;38633;-60
2022/10/10 08:14:30;;;;;;;;;;;11.10;99.90;;;;;;5108235;27;37718;-60
2022/10/10 08:16:57;;;;;;;;;;;11.10;99.90;;;;;;5109260;27;37405;-60
2022/10/10 08:19:26;;;;;;;;;;;11.20;99.90;;;;;;5107807;27;36736;-60
2022/10/10 08:21:53;;;;;;;;;;;11.30;99.90;;;;;;5108890;27;38960;-60
2022/10/10 08:24:20;;;;;;;;;;;11.40;99.90;;;;;;5108214;27;38476;-60
2022/10/10 08:26:47;;;;;;;;;;;11.50;99.90;;;;;;5109458;27;35237;-60
2022/10/10 08:29:14;;;;;;;;;;;11.60;99.90;;;;;;5109296;27;38981;-60
2022/10/10 08:31:41;;;;;;;;;;;11.70;99.90;;;;;;5107706;27;39530;-60
2022/10/10 08:34:08;;;;;;;;;;;11.80;99.90;;;;;;5107179;27;37777;-60
2022/10/10 08:36:37;;;;;;;;;;;11.80;99.90;;;;;;5108605;27;36318;-60
2022/10/10 08:39:04;;;;;;;;;;;11.90;99.90;;;;;;5108297;27;37719;-60
2022/10/10 08:41:37;;;;;;;;;;;12.00;99.90;;;;;;5108235;27;39008;-60
2022/10/10 08:44:07;;;;;;;;;;;12.00;99.90;;;;;;5108339;27;38283;-59
2022/10/10 08:46:36;;;;;;;;;;;12.10;99.90;;;;;;5101852;27;36060;-60
2022/10/10 08:49:12;;;;;;;;;;;12.20;99.90;;;;;;5107053;27;36465;-60
2022/10/10 08:51:41;;;;;;;;;;;12.20;99.90;;;;;;5093620;27;38571;-60
2022/10/10 08:54:10;;;;;;;;;;;12.30;99.90;;;;;;5109928;27;38698;-60
2022/10/10 08:56:38;;;;;;;;;;;12.40;99.90;;;;;;5109377;27;36372;-61
2022/10/10 08:59:10;;;;;;;;;;;12.40;99.90;;;;;;5101566;27;37850;-60
2022/10/10 09:01:38;;;;;;;;;;;12.50;99.90;;;;;;5099348;27;37809;-60
2022/10/10 09:04:06;;;;;;;;;;;12.50;99.90;;;;;;5103443;27;38817;-59
2022/10/10 09:06:40;;;;;;;;;;;12.50;99.90;;;;;;5109596;27;36153;-60
2022/10/10 09:09:14;;;;;;;;;;;12.60;99.90;;;;;;5108994;27;37882;-60
2022/10/10 09:11:49;;;;;;;;;;;12.70;99.90;;;;;;5108557;27;38324;-59
2022/10/10 09:14:24;;;;;;;;;;;12.80;99.90;;;;;;5109032;27;37819;-57
2022/10/10 09:16:54;;;;;;;;;;;12.90;99.90;;;;;;5107729;27;36680;-60
2022/10/10 09:19:27;;;;;;;;;;;12.80;99.90;;;;;;5108157;27;38698;-58
2022/10/10 09:21:57;;;;;;;;;;;12.90;99.90;;;;;;5107901;27;39284;-60
2022/10/10 09:24:27;;;;;;;;;;;12.90;99.90;;;;;;5109039;27;36954;-60
2022/10/10 09:26:57;;;;;;;;;;;13.00;99.90;;;;;;5108745;27;37198;-60
2022/10/10 09:29:27;;;;;;;;;;;13.00;99.90;;;;;;5108990;27;37214;-60
2022/10/10 09:31:58;;;;;;;;;;;13.00;99.90;;;;;;5108364;27;37888;-60
2022/10/10 09:34:29;;;;;;;;;;;13.00;99.90;;;;;;5107739;27;38893;-60
2022/10/10 09:36:59;;;;;;;;;;;13.00;99.90;;;;;;5108995;27;35084;-60
2022/10/10 09:39:32;;;;;;;;;;;13.10;99.90;;;;;;5108735;27;38371;-60
2022/10/10 09:42:00;;;;;;;;;;;13.10;99.90;;;;;;5107378;27;39226;-59
2022/10/10 09:44:27;;;;;;;;;;;13.10;99.90;;;;;;5108618;27;37741;-60
2022/10/10 09:46:55;;;;;;;;;;;13.20;99.90;;;;;;5108534;27;36449;-58
2022/10/10 09:49:22;;;;;;;;;;;13.30;99.90;;;;;;5106079;27;36568;-60
2022/10/10 09:51:49;;;;;;;;;;;13.40;99.90;;;;;;5109728;27;39638;-60
2022/10/10 09:54:18;;;;;;;;;;;13.40;99.90;;;;;;5108876;27;37417;-60
2022/10/10 09:56:48;;;;;;;;;;;13.50;99.90;;;;;;5110778;27;36957;-60
2022/10/10 09:59:35;;;;;;;;;;;13.50;99.90;;;;;;5106976;27;36600;-60
2022/10/10 10:02:03;;;;;;;;;;;13.60;99.90;;;;;;5107167;27;38148;-61
2022/10/10 10:04:32;;;;;;;;;;;13.70;99.90;;;;;;5104832;27;38426;-60
2022/10/10 10:07:07;;;;;;;;;;;13.80;99.90;;;;;;5106629;27;35109;-60
2022/10/10 10:09:34;;;;;;;;;;;13.90;99.90;;;;;;5106937;27;38361;-60
2022/10/10 10:12:04;;;;;;;;;;;14.00;99.90;;;;;;5107321;27;38132;-60
2022/10/10 10:14:35;;;;;;;;;;;14.00;99.90;;;;;;5105596;27;37391;-60
2022/10/10 10:17:05;;;;;;;;;;;14.00;99.90;;;;;;5105914;27;35163;-60
2022/10/10 10:19:34;;;;;;;;;;;14.00;99.90;;;;;;5105196;27;37774;-60
2022/10/10 10:22:01;;;;;;;;;;;14.00;99.90;;;;;;5105851;27;39004;-58
2022/10/10 10:24:31;;;;;;;;;;;14.00;99.90;;;;;;5104265;27;39280;-60
2022/10/10 10:27:07;;;;;;;;;;;14.00;99.90;;;;;;5105246;27;37163;-60
2022/10/10 10:29:36;;;;;;;;;;;14.00;99.90;;;;;;5106648;27;37649;-60
2022/10/10 10:32:04;;;;;;;;;;;14.10;99.90;;;;;;5106277;27;38337;-60
2022/10/10 10:34:46;;;;;;;;;;;14.20;99.90;;;;;;5106655;27;38276;-60
2022/10/10 10:37:17;;;;;;;;;;;14.30;99.90;;;;;;5104880;27;39955;-60
2022/10/10 10:39:50;;;;;;;;;;;14.40;99.90;;;;;;5107213;27;37567;-58
2022/10/10 10:42:24;;;;;;;;;;;14.60;99.90;;;;;;5108955;27;38771;-60
2022/10/10 10:44:59;;;;;;;;;;;14.80;99.90;;;;;;5108288;27;37718;-60
2022/10/10 10:47:33;;;;;;;;;;;14.80;99.90;;;;;;5108478;27;37415;-60
2022/10/10 10:50:05;;;;;;;;;;;14.90;99.90;;;;;;5106975;27;39337;-59
2022/10/10 10:52:44;;;;;;;;;;;14.80;99.90;;;;;;5108908;27;37016;-59
2022/10/10 10:55:16;;;;;;;;;;;14.80;99.90;;;;;;5108395;27;37273;-60
2022/10/10 10:57:51;;;;;;;;;;;14.80;99.90;;;;;;5108272;27;36166;-60
2022/10/10 11:00:20;;;;;;;;;;;14.80;99.90;;;;;;5108103;27;37813;-59
2022/10/10 11:02:54;;;;;;;;;;;14.80;99.90;;;;;;5107987;27;39022;-60
2022/10/10 11:05:35;;;;;;;;;;;14.80;99.90;;;;;;5107261;27;37906;-58
2022/10/10 11:08:12;;;;;;;;;;;14.80;99.90;;;;;;5108583;27;36359;-59
2022/10/10 11:10:45;;;;;;;;;;;14.70;99.90;;;;;;5107421;27;38031;-60
2022/10/10 11:13:15;;;;;;;;;;;14.70;99.90;;;;;;5108083;27;39201;-59
2022/10/10 11:15:45;;;;;;;;;;;14.60;99.90;;;;;;5106458;27;38528;-60
2022/10/10 11:18:14;;;;;;;;;;;14.60;99.90;;;;;;5107691;27;36617;-60
2022/10/10 11:20:44;;;;;;;;;;;14.50;99.90;;;;;;5106051;27;38440;-59
2022/10/10 11:23:12;;;;;;;;;;;14.50;99.90;;;;;;5106832;27;40085;-60
2022/10/10 11:25:42;;;;;;;;;;;14.40;99.90;;;;;;5107488;27;37927;-60
2022/10/10 11:28:11;;;;;;;;;;;14.40;99.90;;;;;;5106747;27;36283;-59
2022/10/10 11:30:40;;;;;;;;;;;14.30;99.90;;;;;;5107679;27;38848;-59
2022/10/10 11:33:11;;;;;;;;;;;14.30;99.90;;;;;;5108833;27;38555;-60
2022/10/10 11:35:42;;;;;;;;;;;14.30;99.90;;;;;;5107063;27;37745;-60
2022/10/10 11:38:13;;;;;;;;;;;14.20;99.90;;;;;;5108529;27;37840;-59
2022/10/10 11:40:45;;;;;;;;;;;14.20;99.90;;;;;;5107718;27;36423;-58
2022/10/10 11:43:16;;;;;;;;;;;14.20;99.90;;;;;;5108454;27;38971;-59
2022/10/10 11:45:44;;;;;;;;;;;14.10;99.90;;;;;;5108833;27;39021;-59
2022/10/10 11:48:19;;;;;;;;;;;14.10;99.90;;;;;;5107523;27;35910;-58
2022/10/10 11:50:50;;;;;;;;;;;14.10;99.90;;;;;;5108703;27;37411;-60
2022/10/10 11:53:20;;;;;;;;;;;14.10;99.90;;;;;;5107387;27;39469;-58
2022/10/10 11:55:51;;;;;;;;;;;14.10;99.90;;;;;;5107522;27;39619;-60
2022/10/10 11:58:23;;;;;;;;;;;14.10;99.90;;;;;;5107083;27;38091;-59
2022/10/10 12:00:52;;;;;;;;;;;14.10;99.90;;;;;;5108853;27;36608;-60
2022/10/10 12:03:21;;;;;;;;;;;14.10;99.90;;;;;;5106978;27;40273;-60
2022/10/10 12:05:50;;;;;;;;;;;14.10;99.90;;;;;;5109032;27;37688;-59
2022/10/10 12:08:20;;;;;;;;;;;14.10;99.90;;;;;;5106972;27;37886;-59
2022/10/10 12:10:49;;;;;;;;;;;14.10;99.90;;;;;;5108492;27;36620;-58
2022/10/10 12:13:30;;;;;;;;;;;14.10;99.90;;;;;;5107272;27;38900;-59
2022/10/10 12:15:59;;;;;;;;;;;14.10;99.90;;;;;;5108441;27;38842;-59
2022/10/10 12:18:30;;;;;;;;;;;14.10;99.90;;;;;;5107376;27;35965;-58
2022/10/10 12:21:04;;;;;;;;;;;14.20;99.90;;;;;;5107467;27;39296;-59
2022/10/10 12:23:31;;;;;;;;;;;14.20;99.90;;;;;;5106609;27;38333;-58
2022/10/10 12:25:59;;;;;;;;;;;14.20;99.90;;;;;;5107578;27;37437;-60
2022/10/10 12:28:27;;;;;;;;;;;14.30;99.90;;;;;;5110362;27;37591;-59
2022/10/10 12:31:15;;;;;;;;;;;14.20;99.90;;;;;;5111007;27;38877;-59
2022/10/10 12:34:03;;;;;;;;;;;14.20;99.90;;;;;;5107735;27;37084;-59
2022/10/10 12:36:53;;;;;;;;;;;14.20;99.90;;;;;;5111120;27;37866;-60
2022/10/10 12:39:34;;;;;;;;;;;14.20;99.90;;;;;;5110761;27;36191;-60
2022/10/10 12:42:01;;;;;;;;;;;14.20;99.90;;;;;;5110936;27;39718;-59
2022/10/10 12:44:42;;;;;;;;;;;14.20;99.90;;;;;;5110671;27;37231;-60
2022/10/10 12:47:29;;;;;;;;;;;14.10;99.90;;;;;;5109995;27;37424;-59
2022/10/10 12:49:58;;;;;;;;;;;14.10;99.90;;;;;;5110114;27;41368;-60
2022/10/10 12:52:27;;;;;;;;;;;14.00;99.90;;;;;;5110473;27;41824;-60
2022/10/10 12:54:55;;;;;;;;;;;14.00;99.90;;;;;;5111172;27;39259;-60
2022/10/10 12:57:27;;;;;;;;;;;14.00;99.90;;;;;;5110428;27;38269;-59
2022/10/10 12:59:54;;;;;;;;;;;14.00;99.90;;;;;;5111481;27;36815;-58
2022/10/10 13:02:23;;;;;;;;;;;13.90;99.90;;;;;;5111418;27;37507;-59
2022/10/10 13:04:53;;;;;;;;;;;13.90;99.90;;;;;;5110498;27;38386;-58
2022/10/10 13:07:21;;;;;;;;;;;13.90;99.90;;;;;;5110821;27;38382;-59
2022/10/10 13:09:49;;;;;;;;;;;13.90;99.90;;;;;;5110524;27;35827;-59
2022/10/10 13:12:23;;;;;;;;;;;13.90;99.90;;;;;;5111254;27;37633;-59
2022/10/10 13:14:51;;;;;;;;;;;13.90;99.90;;;;;;5110833;27;38599;-58
2022/10/10 13:17:22;;;;;;;;;;;13.80;99.90;;;;;;5110489;27;36333;-59
2022/10/10 13:19:49;;;;;;;;;;;13.80;99.90;;;;;;5110036;27;37854;-59
2022/10/10 13:22:17;;;;;;;;;;;13.80;99.90;;;;;;5110080;27;39218;-58
2022/10/10 13:24:46;;;;;;;;;;;13.80;99.90;;;;;;5102656;27;39175;-58
2022/10/10 13:27:15;;;;;;;;;;;13.80;99.90;;;;;;5104787;27;38267;-58
2022/10/10 13:29:43;;;;;;;;;;;13.80;99.90;;;;;;5108786;27;35949;-58
2022/10/10 13:32:13;;;;;;;;;;;13.80;99.90;;;;;;5110205;27;38652;-58
2022/10/10 13:34:42;;;;;;;;;;;13.80;99.90;;;;;;5110155;27;40197;-58
2022/10/10 13:37:12;;;;;;;;;;;13.70;99.90;;;;;;5110527;27;39333;-59
2022/10/10 13:39:40;;;;;;;;;;;13.60;99.90;;;;;;5110055;27;37782;-58
2022/10/10 13:42:26;;;;;;;;;;;13.50;99.90;;;;;;5110953;27;38537;-58
2022/10/10 13:44:53;;;;;;;;;;;13.50;99.90;;;;;;5109867;27;37044;-58
2022/10/10 13:47:39;;;;;;;;;;;13.40;99.90;;;;;;5110520;27;38394;-59
2022/10/10 13:50:17;;;;;;;;;;;13.40;99.90;;;;;;5109369;27;37684;-58
2022/10/10 13:52:44;;;;;;;;;;;13.30;99.90;;;;;;5110217;27;39168;-58
2022/10/10 13:55:15;;;;;;;;;;;13.30;99.90;;;;;;5109822;27;38588;-58
2022/10/10 13:57:43;;;;;;;;;;;13.30;99.90;;;;;;5108497;27;38891;-58
2022/10/10 14:00:15;;;;;;;;;;;13.20;99.90;;;;;;5110532;27;38892;-59
2022/10/10 14:02:43;;;;;;;;;;;13.20;99.90;;;;;;5110278;27;37784;-58
2022/10/10 14:05:13;;;;;;;;;;;13.20;99.90;;;;;;5109844;27;39064;-58
2022/10/10 14:07:46;;;;;;;;;;;13.10;99.90;;;;;;5109400;27;38077;-58
2022/10/10 14:10:16;;;;;;;;;;;13.10;99.90;;;;;;5111080;27;37228;-58
2022/10/10 14:12:49;;;;;;;;;;;13.00;99.90;;;;;;5110290;27;36778;-58
2022/10/10 14:15:34;;;;;;;;;;;13.00;99.90;;;;;;5110175;27;38113;-58
2022/10/10 14:18:02;;;;;;;;;;;13.00;99.90;;;;;;5109526;27;37720;-59
2022/10/10 14:20:29;;;;;;;;;;;13.00;99.90;;;;;;5109711;27;36567;-58
2022/10/10 14:23:00;;;;;;;;;;;13.00;99.90;;;;;;5110168;27;40241;-58
2022/10/10 14:25:27;;;;;;;;;;;13.00;99.90;;;;;;5109981;27;39405;-58
2022/10/10 14:27:55;;;;;;;;;;;13.00;99.90;;;;;;5110493;27;37969;-58
2022/10/10 14:30:22;;;;;;;;;;;12.90;99.90;;;;;;5109202;27;37892;-58
2022/10/10 14:32:49;;;;;;;;;;;13.00;99.90;;;;;;5109960;27;37666;-58